Time;durP1;ratioP1;P1;durP2;ratioP2;P2;SDS_P1;SDS_P2;PMS_P1;PMS_P2;Temp;Humidity;BMP_temperature;BMP_pressure;BME280_temperature;BME280_humidity;BME280_pressure;Samples;Min_cycle;Max_cycle;Signal;HPM_P1;HPM_P2
2021/12/12 00:02:20;;;;;;;23.60;15.48;;;3.00;99.90;;;;;;5093708;28;20039;-51
2021/12/12 00:04:48;;;;;;;23.98;15.30;;;3.10;99.90;;;;;;5094239;28;20043;-50
2021/12/12 00:07:22;;;;;;;23.48;13.20;;;3.10;99.90;;;;;;5093191;28;20491;-51
2021/12/12 00:09:52;;;;;;;28.23;16.70;;;3.20;99.90;;;;;;5093514;28;20058;-48
2021/12/12 00:12:27;;;;;;;24.77;15.45;;;3.20;99.90;;;;;;5093470;28;20043;-48
2021/12/12 00:14:54;;;;;;;24.38;14.68;;;3.20;99.90;;;;;;5093469;28;20047;-51
2021/12/12 00:17:21;;;;;;;27.25;16.55;;;3.30;99.90;;;;;;5093429;28;20056;-51
2021/12/12 00:19:47;;;;;;;25.73;15.90;;;3.30;99.90;;;;;;5074559;28;20135;-48
2021/12/12 00:22:18;;;;;;;27.35;16.08;;;3.20;99.90;;;;;;5093413;28;20024;-49
2021/12/12 00:24:45;;;;;;;17.05;10.40;;;3.30;99.90;;;;;;5093179;28;20024;-52
2021/12/12 00:27:11;;;;;;;28.55;17.98;;;3.20;99.90;;;;;;5093460;28;20042;-49
2021/12/12 00:29:37;;;;;;;27.85;17.67;;;3.30;99.90;;;;;;5093449;28;20035;-48
2021/12/12 00:32:10;;;;;;;14.63;8.45;;;3.30;99.90;;;;;;5093257;28;20077;-48
2021/12/12 00:34:41;;;;;;;23.30;13.85;;;3.20;99.90;;;;;;5090891;28;20055;-52
2021/12/12 00:37:08;;;;;;;25.77;15.98;;;3.20;99.90;;;;;;5090771;28;20055;-47
2021/12/12 00:39:37;;;;;;;17.67;11.80;;;3.30;99.90;;;;;;5090880;28;20040;-51
2021/12/12 00:42:08;;;;;;;22.80;13.38;;;3.20;99.90;;;;;;5090910;28;20032;-48
2021/12/12 00:44:36;;;;;;;17.15;9.85;;;3.30;99.90;;;;;;5090962;28;20044;-51
2021/12/12 00:47:04;;;;;;;26.35;13.85;;;3.40;99.90;;;;;;5090848;28;20040;-50
2021/12/12 00:49:31;;;;;;;21.00;13.82;;;3.50;99.90;;;;;;5073602;28;20048;-49
2021/12/12 00:51:58;;;;;;;23.38;14.70;;;3.70;99.90;;;;;;5090838;28;20093;-51
2021/12/12 00:54:30;;;;;;;19.52;11.52;;;3.80;99.90;;;;;;5090455;28;20508;-50
2021/12/12 00:57:06;;;;;;;17.17;9.73;;;3.70;99.90;;;;;;5090687;28;20036;-51
2021/12/12 00:59:33;;;;;;;25.73;15.88;;;3.60;99.90;;;;;;5090465;28;20066;-49
2021/12/12 01:02:00;;;;;;;19.83;12.82;;;3.50;99.90;;;;;;5090608;28;20047;-50
2021/12/12 01:04:31;;;;;;;21.95;13.55;;;3.50;99.90;;;;;;5090733;28;20063;-50
2021/12/12 01:07:04;;;;;;;22.10;15.27;;;3.50;99.90;;;;;;5092932;28;20081;-50
2021/12/12 01:09:32;;;;;;;;;;;3.60;99.90;;;;;;5090702;28;20136;-49
2021/12/12 01:12:01;;;;;;;12.10;7.47;;;3.40;99.90;;;;;;5090340;28;19930;-49
2021/12/12 01:14:32;;;;;;;20.73;12.68;;;3.30;99.90;;;;;;5090277;28;20530;-51
2021/12/12 01:17:12;;;;;;;22.25;14.25;;;3.40;99.90;;;;;;5072817;28;20043;-49
2021/12/12 01:19:56;;;;;;;25.15;16.88;;;3.30;99.90;;;;;;5073101;28;20044;-50
2021/12/12 01:22:31;;;;;;;14.60;9.82;;;3.30;99.90;;;;;;5056346;28;20451;-51
2021/12/12 01:25:09;;;;;;;14.90;7.60;;;3.20;99.90;;;;;;5090268;28;20044;-51
2021/12/12 01:27:35;;;;;;;19.83;13.93;;;3.00;99.90;;;;;;5090324;28;20063;-48
2021/12/12 01:30:02;;;;;;;18.50;12.90;;;3.10;99.90;;;;;;5090114;28;20369;-49
2021/12/12 01:32:31;;;;;;;22.92;15.90;;;3.00;99.90;;;;;;5073136;28;20070;-50
2021/12/12 01:34:58;;;;;;;24.17;14.30;;;3.10;99.90;;;;;;5090066;28;20553;-49
2021/12/12 01:37:37;;;;;;;17.67;10.10;;;3.20;99.90;;;;;;5090125;28;20420;-49
2021/12/12 01:40:15;;;;;;;16.75;11.40;;;3.10;99.90;;;;;;5076249;28;20056;-48
2021/12/12 01:42:48;;;;;;;15.65;10.07;;;3.00;99.90;;;;;;5090018;28;20063;-48
2021/12/12 01:45:23;;;;;;;18.80;11.13;;;3.00;99.90;;;;;;5087209;28;20044;-48
2021/12/12 01:47:57;;;;;;;16.80;11.38;;;3.00;99.90;;;;;;5056317;28;20040;-49
2021/12/12 01:50:42;;;;;;;20.50;13.50;;;3.10;99.90;;;;;;5090116;28;20123;-50
2021/12/12 01:53:12;;;;;;;15.77;10.32;;;3.10;99.90;;;;;;5089943;28;20032;-49
2021/12/12 01:55:58;;;;;;;18.58;11.38;;;3.00;99.90;;;;;;5049642;28;20065;-50
2021/12/12 01:58:28;;;;;;;12.50;7.43;;;3.00;99.90;;;;;;5048694;28;20041;-49
2021/12/12 02:00:56;;;;;;;23.48;15.23;;;3.00;99.90;;;;;;5009637;28;20052;-50
2021/12/12 02:03:25;;;;;;;25.85;15.57;;;2.90;99.90;;;;;;5010124;28;20778;-48
2021/12/12 02:05:53;;;;;;;18.77;10.52;;;3.00;99.90;;;;;;5009947;28;20042;-48
2021/12/12 02:08:20;;;;;;;24.00;12.98;;;2.70;99.90;;;;;;5009933;28;20033;-51
2021/12/12 02:10:49;;;;;;;17.42;9.35;;;2.70;99.90;;;;;;5017905;28;20042;-50
2021/12/12 02:13:18;;;;;;;10.88;6.78;;;2.60;99.90;;;;;;5029584;28;20030;-48
2021/12/12 02:15:47;;;;;;;19.02;12.32;;;2.60;99.90;;;;;;5029469;28;20112;-48
2021/12/12 02:18:16;;;;;;;22.55;14.02;;;2.50;99.90;;;;;;5029662;28;20057;-50
2021/12/12 02:21:36;;;;;;;19.65;13.07;;;2.50;99.90;;;;;;5029529;28;20080;-50
2021/12/12 02:37:29;;;;;;;18.38;12.05;;;2.10;99.90;;;;;;5095948;28;20411;-50
2021/12/12 02:39:56;;;;;;;17.60;11.10;;;2.10;99.90;;;;;;5095662;28;20078;-51
2021/12/12 02:42:23;;;;;;;19.92;11.07;;;2.10;99.90;;;;;;5095834;28;20372;-48
2021/12/12 02:44:54;;;;;;;22.67;15.02;;;2.10;99.90;;;;;;5095746;28;20151;-48
2021/12/12 02:47:25;;;;;;;23.80;13.57;;;2.10;99.90;;;;;;5095734;28;20379;-47
2021/12/12 02:52:24;;;;;;;19.05;11.18;;;2.00;99.90;;;;;;5095380;28;20178;-51
2021/12/12 02:54:50;;;;;;;20.88;13.50;;;2.00;99.90;;;;;;5095198;28;20040;-48
2021/12/12 02:57:18;;;;;;;15.38;9.18;;;2.00;99.90;;;;;;5095283;28;20574;-48
2021/12/12 02:59:48;;;;;;;9.55;6.22;;;2.00;99.90;;;;;;5095516;28;20028;-50
2021/12/12 03:02:22;;;;;;;20.73;12.82;;;1.90;99.90;;;;;;5095084;28;20376;-50
2021/12/12 03:04:48;;;;;;;16.30;10.13;;;1.90;99.90;;;;;;5095355;28;20158;-48
2021/12/12 03:07:14;;;;;;;18.85;10.82;;;1.90;99.90;;;;;;5095164;28;20032;-48
2021/12/12 03:09:44;;;;;;;15.98;9.55;;;2.00;99.90;;;;;;5095259;28;20119;-50
2021/12/12 03:12:18;;;;;;;16.20;8.93;;;1.90;99.90;;;;;;5095614;28;20098;-49
2021/12/12 03:14:45;;;;;;;13.73;9.48;;;1.90;99.90;;;;;;5094979;28;20456;-49
2021/12/12 03:17:19;;;;;;;10.85;7.57;;;1.90;99.90;;;;;;5094910;28;20097;-51
2021/12/12 03:19:52;;;;;;;15.77;9.95;;;1.80;99.90;;;;;;5092971;28;20035;-47
2021/12/12 03:22:18;;;;;;;14.10;9.07;;;1.90;99.90;;;;;;5094515;28;20039;-51
2021/12/12 03:24:44;;;;;;;12.45;8.10;;;1.80;99.90;;;;;;5094909;28;20052;-47
2021/12/12 03:27:11;;;;;;;11.70;7.35;;;1.70;99.90;;;;;;5094951;28;20109;-47
2021/12/12 03:29:40;;;;;;;20.08;10.25;;;1.70;99.90;;;;;;5094840;28;20028;-50
2021/12/12 03:32:10;;;;;;;20.23;11.35;;;1.70;99.90;;;;;;5094606;28;20028;-48
2021/12/12 03:34:40;;;;;;;14.00;8.05;;;1.80;99.90;;;;;;5094565;28;20046;-49
2021/12/12 03:37:08;;;;;;;18.38;11.02;;;1.70;99.90;;;;;;5094508;28;20111;-48
2021/12/12 03:39:36;;;;;;;12.35;9.20;;;1.80;99.90;;;;;;5094629;28;20031;-48
2021/12/12 03:42:09;;;;;;;17.15;10.40;;;1.70;99.90;;;;;;5093853;28;20519;-51
2021/12/12 03:44:38;;;;;;;15.85;9.45;;;1.70;99.90;;;;;;5094282;28;20099;-47
2021/12/12 03:47:19;;;;;;;14.63;8.70;;;1.60;99.90;;;;;;5094125;28;20768;-51
2021/12/12 03:49:46;;;;;;;15.32;8.80;;;;;;;;;;5094305;28;20020;-48
2021/12/12 03:52:14;;;;;;;14.48;8.98;;;1.60;99.90;;;;;;5094533;28;20020;-50
2021/12/12 03:54:40;;;;;;;14.52;7.90;;;1.60;99.90;;;;;;5094201;28;20032;-51
2021/12/12 03:57:07;;;;;;;15.57;8.23;;;1.50;99.90;;;;;;5094174;28;20028;-49
2021/12/12 04:19:35;;;;;;;20.58;11.65;;;1.90;99.90;;;;;;5061555;28;20395;-54
2021/12/12 04:22:03;;;;;;;21.92;12.63;;;1.90;99.90;;;;;;5049219;28;20037;-52
2021/12/12 04:24:34;;;;;;;16.45;9.93;;;1.90;99.90;;;;;;5056913;28;20025;-51
2021/12/12 04:27:01;;;;;;;14.98;9.93;;;1.80;99.90;;;;;;5052020;28;20079;-49
2021/12/12 04:29:32;;;;;;;18.83;10.63;;;1.70;99.90;;;;;;5060761;28;20060;-49
2021/12/12 04:32:04;;;;;;;21.25;9.93;;;1.60;99.90;;;;;;5041638;28;20132;-51
2021/12/12 04:34:34;;;;;;;16.63;8.65;;;1.70;99.90;;;;;;5058703;28;20065;-51
2021/12/12 04:37:01;;;;;;;21.55;11.32;;;1.70;99.90;;;;;;5047375;28;20452;-52
2021/12/12 04:39:30;;;;;;;25.13;13.55;;;1.70;99.90;;;;;;5050664;28;20037;-51
2021/12/12 04:42:18;;;;;;;13.73;7.65;;;1.70;99.90;;;;;;5053927;28;20032;-53
2021/12/12 04:44:52;;;;;;;19.15;11.52;;;1.70;99.90;;;;;;5047019;28;20033;-51
2021/12/12 04:50:30;;;;;;;13.75;8.27;;;1.70;99.90;;;;;;5052131;28;20104;-51
2021/12/12 04:53:06;;;;;;;21.27;11.95;;;1.60;99.90;;;;;;5053815;28;20026;-51
2021/12/12 04:55:47;;;;;;;19.50;10.65;;;1.70;99.90;;;;;;5050707;28;20031;-50
2021/12/12 04:58:20;;;;;;;18.55;11.20;;;1.70;99.90;;;;;;5044054;28;20040;-54
2021/12/12 05:00:51;;;;;;;14.15;8.95;;;1.70;99.90;;;;;;5048705;28;20083;-50
2021/12/12 05:03:47;;;;;;;18.02;10.90;;;1.70;99.90;;;;;;5051740;28;20068;-53
2021/12/12 05:06:26;;;;;;;14.43;8.68;;;1.80;99.90;;;;;;5042346;28;20029;-54
2021/12/12 05:09:16;;;;;;;15.38;10.00;;;1.60;99.90;;;;;;5051152;28;20120;-55
2021/12/12 05:12:12;;;;;;;16.15;10.13;;;1.70;99.90;;;;;;5046360;28;20021;-52
2021/12/12 05:14:40;;;;;;;19.48;11.50;;;1.70;99.90;;;;;;5047511;28;20040;-50
2021/12/12 05:17:17;;;;;;;22.15;12.75;;;1.60;99.90;;;;;;5053414;28;20018;-54
2021/12/12 05:19:48;;;;;;;19.15;12.25;;;1.70;99.90;;;;;;5047950;28;20053;-52
2021/12/12 05:22:45;;;;;;;15.53;9.03;;;1.60;99.90;;;;;;5042874;28;20388;-51
2021/12/12 05:25:23;;;;;;;23.45;12.70;;;1.60;99.90;;;;;;5027582;28;20290;-51
2021/12/12 05:27:52;;;;;;;18.20;9.52;;;1.60;99.90;;;;;;5035063;28;20041;-50
2021/12/12 05:30:28;;;;;;;18.73;12.13;;;1.60;99.90;;;;;;5035574;28;20037;-51
2021/12/12 05:32:55;;;;;;;16.10;8.80;;;1.50;99.90;;;;;;5034860;28;20445;-52
2021/12/12 05:35:25;;;;;;;18.95;11.23;;;1.60;99.90;;;;;;5034885;28;20039;-52
2021/12/12 05:37:53;;;;;;;21.83;12.32;;;1.50;99.90;;;;;;5038246;28;20079;-54
2021/12/12 05:40:22;;;;;;;20.95;11.82;;;1.60;99.90;;;;;;5028832;28;20049;-51
2021/12/12 05:42:51;;;;;;;23.88;12.32;;;1.60;99.90;;;;;;5036847;28;20052;-52
2021/12/12 05:45:17;;;;;;;17.88;10.80;;;1.60;99.90;;;;;;5036215;28;20503;-50
2021/12/12 05:47:43;;;;;;;25.77;14.68;;;1.30;99.90;;;;;;5036506;28;20038;-53
2021/12/12 05:50:12;;;;;;;28.20;14.45;;;1.50;99.90;;;;;;5032038;28;20045;-54
2021/12/12 05:52:41;;;;;;;24.40;14.20;;;1.50;99.90;;;;;;5047702;28;20128;-55
2021/12/12 05:55:08;;;;;;;22.52;12.23;;;1.50;99.90;;;;;;5041496;28;20108;-52
2021/12/12 05:57:34;;;;;;;18.95;11.85;;;1.50;99.90;;;;;;5035354;28;20041;-51
2021/12/12 06:00:04;;;;;;;31.63;15.23;;;1.40;99.90;;;;;;5034173;28;20061;-49
2021/12/12 06:02:32;;;;;;;17.13;10.75;;;1.40;99.90;;;;;;5013568;28;20120;-55
2021/12/12 06:04:58;;;;;;;26.65;12.85;;;1.30;99.90;;;;;;5037303;28;20038;-56
2021/12/12 06:07:25;;;;;;;26.00;14.90;;;1.40;99.90;;;;;;5023714;28;20443;-53
2021/12/12 06:09:51;;;;;;;25.15;13.88;;;1.30;99.90;;;;;;5031446;28;20036;-52
2021/12/12 06:12:18;;;;;;;27.33;13.85;;;1.30;99.90;;;;;;5002073;28;20038;-52
2021/12/12 06:14:45;;;;;;;25.80;14.40;;;1.30;99.90;;;;;;5018668;28;20449;-53
2021/12/12 06:17:13;;;;;;;15.95;9.27;;;1.30;99.90;;;;;;5028554;28;20034;-52
2021/12/12 06:19:40;;;;;;;28.75;15.05;;;1.20;99.90;;;;;;5001328;28;20045;-49
2021/12/12 06:22:08;;;;;;;27.20;14.07;;;1.30;99.90;;;;;;5037764;28;20069;-54
2021/12/12 06:24:35;;;;;;;26.88;14.18;;;1.30;99.90;;;;;;5035674;28;20095;-54
2021/12/12 06:27:11;;;;;;;24.50;15.32;;;1.30;99.90;;;;;;5035820;28;20045;-52
2021/12/12 06:29:37;;;;;;;23.35;13.40;;;1.20;99.90;;;;;;5035288;28;20500;-58
2021/12/12 06:32:05;;;;;;;29.92;17.27;;;1.30;99.90;;;;;;5030355;28;20183;-53
2021/12/12 06:34:31;;;;;;;20.85;13.00;;;1.40;99.90;;;;;;5015518;28;21319;-52
2021/12/12 06:36:57;;;;;;;28.10;16.25;;;1.30;99.90;;;;;;5033507;28;20123;-54
2021/12/12 06:39:23;;;;;;;23.67;12.68;;;1.30;99.90;;;;;;5032227;28;20072;-53
2021/12/12 06:41:51;;;;;;;24.08;14.63;;;1.30;99.90;;;;;;5032031;28;20040;-49
2021/12/12 06:44:17;;;;;;;24.33;13.93;;;1.30;99.90;;;;;;5034953;28;20121;-56
2021/12/12 06:46:47;;;;;;;20.58;11.93;;;1.30;99.90;;;;;;5036641;28;20619;-52
2021/12/12 06:49:16;;;;;;;18.63;12.57;;;1.30;99.90;;;;;;5033986;28;20049;-55
2021/12/12 06:51:49;;;;;;;23.00;13.80;;;1.30;99.90;;;;;;5031189;28;20048;-57
2021/12/12 06:54:21;;;;;;;20.13;10.73;;;1.30;99.90;;;;;;5037643;28;20507;-54
2021/12/12 06:56:49;;;;;;;26.50;14.43;;;1.30;99.90;;;;;;5021579;28;20494;-52
2021/12/12 06:59:16;;;;;;;26.60;13.45;;;1.30;99.90;;;;;;5002931;28;20042;-55
2021/12/12 07:01:42;;;;;;;30.27;17.73;;;1.30;99.90;;;;;;5020890;28;20044;-54
2021/12/12 07:04:13;;;;;;;25.50;16.27;;;1.30;99.90;;;;;;5031645;28;20048;-53
2021/12/12 07:06:39;;;;;;;22.88;13.38;;;1.40;99.90;;;;;;5032985;28;20564;-56
2021/12/12 07:09:09;;;;;;;28.90;16.52;;;1.30;99.90;;;;;;5034130;28;20485;-51
2021/12/12 07:11:36;;;;;;;57.92;33.60;;;1.40;99.90;;;;;;5034787;28;20030;-52
2021/12/12 07:14:04;;;;;;;22.30;13.57;;;1.40;99.90;;;;;;5032684;28;20124;-53
2021/12/12 07:16:31;;;;;;;17.15;11.25;;;1.30;99.90;;;;;;5048707;28;20361;-58
2021/12/12 07:18:57;;;;;;;29.38;17.25;;;1.40;99.90;;;;;;5034079;28;20135;-55
2021/12/12 07:21:25;;;;;;;27.13;17.77;;;1.40;99.90;;;;;;5026480;28;20112;-52
2021/12/12 07:23:52;;;;;;;29.20;12.63;;;1.40;99.90;;;;;;5020012;28;20096;-55
2021/12/12 07:26:22;;;;;;;28.33;16.02;;;1.40;99.90;;;;;;5035032;28;20040;-57
2021/12/12 07:28:48;;;;;;;25.63;16.42;;;1.40;99.90;;;;;;5036150;28;20040;-50
2021/12/12 07:31:18;;;;;;;28.90;17.70;;;1.30;99.90;;;;;;5037127;28;20053;-52
2021/12/12 07:33:47;;;;;;;20.88;13.13;;;1.30;99.90;;;;;;5000896;28;20036;-54
2021/12/12 07:36:15;;;;;;;19.27;12.10;;;1.30;99.90;;;;;;5039154;28;20428;-57
2021/12/12 07:38:45;;;;;;;20.10;13.25;;;1.30;99.90;;;;;;5031363;28;20026;-49
2021/12/12 07:41:12;;;;;;;22.55;14.00;;;1.30;99.90;;;;;;5030512;28;20044;-52
2021/12/12 07:43:38;;;;;;;22.98;13.90;;;1.40;99.90;;;;;;5030877;28;20112;-52
2021/12/12 07:46:05;;;;;;;25.35;14.77;;;1.30;99.90;;;;;;5037197;28;20033;-53
2021/12/12 07:48:32;;;;;;;23.10;12.93;;;1.30;99.90;;;;;;5045218;28;20121;-53
2021/12/12 07:50:59;;;;;;;20.23;14.27;;;1.20;99.90;;;;;;5038118;28;20032;-51
2021/12/12 07:53:27;;;;;;;21.23;13.85;;;1.30;99.90;;;;;;5036009;28;20095;-51
2021/12/12 07:55:55;;;;;;;25.33;15.45;;;1.30;99.90;;;;;;5032657;28;20541;-50
2021/12/12 07:58:21;;;;;;;23.10;14.85;;;1.30;99.90;;;;;;5025529;28;20038;-49
2021/12/12 08:00:50;;;;;;;33.75;19.08;;;1.30;99.90;;;;;;5034309;28;20556;-54
2021/12/12 08:03:19;;;;;;;36.55;21.05;;;1.20;99.90;;;;;;5033990;28;20036;-52
2021/12/12 08:05:46;;;;;;;21.80;13.07;;;1.30;99.90;;;;;;5034616;28;20543;-51
2021/12/12 08:08:14;;;;;;;22.08;11.70;;;1.20;99.90;;;;;;5034079;28;20037;-48
2021/12/12 08:10:42;;;;;;;26.63;16.45;;;1.30;99.90;;;;;;5033426;28;20091;-54
2021/12/12 08:13:10;;;;;;;21.25;13.98;;;1.30;99.90;;;;;;5037199;28;20630;-52
2021/12/12 08:15:36;;;;;;;16.50;9.45;;;1.40;99.90;;;;;;5031956;28;20040;-51
2021/12/12 08:18:06;;;;;;;16.52;10.73;;;1.30;99.90;;;;;;5030903;28;20692;-52
2021/12/12 08:20:33;;;;;;;29.10;19.45;;;1.20;99.90;;;;;;5030318;28;20559;-52
2021/12/12 08:23:00;;;;;;;22.58;13.70;;;1.20;99.90;;;;;;5032299;28;20068;-49
2021/12/12 08:25:27;;;;;;;23.02;12.20;;;1.20;99.90;;;;;;5033560;28;20021;-51
2021/12/12 08:27:57;;;;;;;23.45;13.13;;;1.30;99.90;;;;;;5031912;28;20116;-52
2021/12/12 08:30:24;;;;;;;21.80;13.68;;;1.30;99.90;;;;;;5030006;28;20068;-51
2021/12/12 08:32:50;;;;;;;33.92;16.85;;;1.30;99.90;;;;;;5031861;28;20033;-49
2021/12/12 08:35:18;;;;;;;20.85;11.60;;;1.40;99.90;;;;;;5032329;28;20029;-51
2021/12/12 08:37:45;;;;;;;20.80;12.63;;;1.30;99.90;;;;;;5045587;28;20048;-55
2021/12/12 08:40:15;;;;;;;23.50;11.95;;;1.40;99.90;;;;;;5045163;28;20057;-48
2021/12/12 08:42:41;;;;;;;17.58;12.00;;;1.30;99.90;;;;;;5029120;28;20100;-51
2021/12/12 08:45:11;;;;;;;20.58;10.88;;;1.20;99.90;;;;;;5031335;28;20025;-52
2021/12/12 08:47:39;;;;;;;21.33;12.68;;;1.20;99.90;;;;;;5046295;28;20374;-49
2021/12/12 08:50:08;;;;;;;23.60;12.68;;;1.10;99.90;;;;;;5034178;28;20025;-52
2021/12/12 08:52:38;;;;;;;18.58;11.25;;;1.20;99.90;;;;;;5040160;28;20033;-51
2021/12/12 08:55:14;;;;;;;15.88;8.05;;;1.30;99.90;;;;;;5022255;28;20056;-51
2021/12/12 08:57:49;;;;;;;17.25;10.38;;;;;;;;;;4986323;28;20037;-57
2021/12/12 09:00:18;;;;;;;24.60;14.15;;;1.30;99.90;;;;;;5033328;28;20042;-48
2021/12/12 09:02:45;;;;;;;29.85;14.10;;;1.30;99.90;;;;;;5033208;28;20029;-52
2021/12/12 09:05:17;;;;;;;16.13;8.52;;;1.30;99.90;;;;;;5030342;28;20112;-55
2021/12/12 09:07:47;;;;;;;17.70;9.85;;;1.20;99.90;;;;;;5033313;28;20044;-52
2021/12/12 09:10:13;;;;;;;15.68;10.80;;;;;;;;;;5033148;28;20049;-52
2021/12/12 09:12:48;;;;;;;24.35;14.60;;;1.10;99.90;;;;;;5032035;28;20034;-56
2021/12/12 09:15:23;;;;;;;23.60;14.35;;;1.20;99.90;;;;;;5045394;28;20063;-50
2021/12/12 09:17:55;;;;;;;27.23;12.85;;;;;;;;;;5041156;28;20129;-56
2021/12/12 09:20:31;;;;;;;21.73;12.63;;;1.20;99.90;;;;;;5032895;28;20049;-54
2021/12/12 09:23:11;;;;;;;19.65;11.35;;;1.10;99.90;;;;;;5032831;28;20037;-56
2021/12/12 09:25:50;;;;;;;19.77;11.18;;;1.00;99.90;;;;;;5033428;28;20044;-60
2021/12/12 09:28:35;;;;;;;28.63;14.23;;;1.00;99.90;;;;;;5035066;28;20049;-56
2021/12/12 09:31:11;;;;;;;20.30;10.60;;;1.10;99.90;;;;;;5032811;28;20489;-55
2021/12/12 09:33:56;;;;;;;27.90;14.32;;;1.10;99.90;;;;;;5034960;28;20025;-55
2021/12/12 09:36:46;;;;;;;27.92;16.58;;;1.20;99.90;;;;;;5054477;28;20115;-57
2021/12/12 09:39:18;;;;;;;18.95;10.00;;;1.20;99.90;;;;;;5069427;28;20037;-54
2021/12/12 09:42:06;;;;;;;21.13;12.38;;;1.20;99.90;;;;;;5050569;28;20506;-52
2021/12/12 10:20:13;;;;;;;22.23;11.57;;;1.50;99.90;;;;;;5097294;27;20799;-52
2021/12/12 10:22:51;;;;;;;15.88;8.00;;;1.40;99.90;;;;;;5097381;28;20085;-50
2021/12/12 10:25:31;;;;;;;12.65;7.13;;;1.40;99.90;;;;;;5103017;28;20475;-58
2021/12/12 10:28:17;;;;;;;20.27;10.05;;;1.30;99.90;;;;;;5104611;28;20042;-51
2021/12/12 10:30:50;;;;;;;25.38;13.95;;;1.40;99.90;;;;;;5109648;28;20032;-53
2021/12/12 10:33:34;;;;;;;15.00;9.43;;;1.40;99.90;;;;;;5108094;28;20378;-58
2021/12/12 10:36:11;;;;;;;10.60;5.78;;;1.30;99.90;;;;;;5092691;28;20024;-57
2021/12/12 10:39:09;;;;;;;19.92;10.73;;;1.30;99.90;;;;;;5092533;28;20542;-56
2021/12/12 10:41:45;;;;;;;11.35;7.03;;;1.20;99.90;;;;;;5084896;28;20376;-54
2021/12/12 10:44:25;;;;;;;14.15;7.97;;;1.40;99.90;;;;;;5109461;28;20431;-53
2021/12/12 10:47:03;;;;;;;17.45;9.98;;;1.30;99.90;;;;;;5104858;28;20055;-56
2021/12/12 10:49:43;;;;;;;12.45;6.38;;;1.40;99.90;;;;;;5107008;28;20044;-56
2021/12/12 10:52:19;;;;;;;15.65;9.88;;;1.40;99.90;;;;;;5076035;28;20068;-52
2021/12/12 10:54:54;;;;;;;14.70;7.78;;;1.40;99.90;;;;;;5087834;28;20027;-52
2021/12/12 10:57:26;;;;;;;19.35;12.10;;;1.50;99.90;;;;;;5094556;28;20115;-49
2021/12/12 11:00:00;;;;;;;19.63;11.43;;;1.50;99.90;;;;;;5080117;28;20123;-55
2021/12/12 11:02:32;;;;;;;25.00;14.02;;;1.40;99.90;;;;;;5085376;28;20036;-58
2021/12/12 11:05:11;;;;;;;24.98;15.07;;;1.50;99.90;;;;;;5081930;28;20041;-55
2021/12/12 11:07:49;;;;;;;19.02;11.85;;;1.50;99.90;;;;;;5083265;28;20457;-56
2021/12/12 11:10:32;;;;;;;17.23;10.35;;;1.40;99.90;;;;;;5085094;28;20530;-55
2021/12/12 11:13:35;;;;;;;22.23;13.15;;;1.40;99.90;;;;;;5078037;28;20495;-52
2021/12/12 11:16:26;;;;;;;14.80;8.82;;;1.50;99.90;;;;;;5033221;28;20775;-57
2021/12/12 11:19:07;;;;;;;19.52;12.38;;;1.60;99.90;;;;;;4963834;28;20053;-52
2021/12/12 11:21:39;;;;;;;20.42;11.15;;;1.50;99.90;;;;;;4950491;29;20039;-56
2021/12/12 11:24:29;;;;;;;23.25;11.60;;;1.50;99.90;;;;;;4953521;29;20032;-56
2021/12/12 11:27:29;;;;;;;22.83;14.30;;;1.50;99.90;;;;;;4937265;29;20039;-54
2021/12/12 11:30:11;;;;;;;17.17;12.27;;;1.60;99.90;;;;;;4955082;28;20058;-52
2021/12/12 11:32:38;;;;;;;20.13;12.90;;;1.50;99.90;;;;;;4959302;28;20047;-54
2021/12/12 11:48:13;;;;;;;20.55;14.18;;;1.90;99.90;;;;;;5060279;28;20409;-49
2021/12/12 11:50:56;;;;;;;18.13;11.23;;;1.90;99.90;;;;;;5002618;28;20034;-53
2021/12/12 11:53:37;;;;;;;17.00;10.30;;;1.80;99.90;;;;;;4996015;28;20489;-52
2021/12/12 11:56:14;;;;;;;16.63;10.65;;;1.70;99.90;;;;;;5003752;28;20078;-58
2021/12/12 11:59:05;;;;;;;13.23;8.88;;;1.60;99.90;;;;;;4984092;28;20120;-55
2021/12/12 12:01:51;;;;;;;11.23;7.35;;;1.70;99.90;;;;;;4992572;28;20061;-55
2021/12/12 12:04:32;;;;;;;12.57;8.90;;;1.70;99.90;;;;;;5006398;28;20026;-52
2021/12/12 12:07:36;;;;;;;11.02;7.28;;;1.70;99.90;;;;;;5005157;28;20065;-53
2021/12/12 12:10:35;;;;;;;11.77;7.97;;;1.60;99.90;;;;;;5004930;28;20125;-59
2021/12/12 12:13:16;;;;;;;10.30;6.10;;;1.60;99.90;;;;;;4983166;28;20470;-53
2021/12/12 12:15:54;;;;;;;10.73;6.90;;;1.70;99.90;;;;;;5004959;28;20049;-51
2021/12/12 12:18:47;;;;;;;10.60;5.95;;;1.70;99.90;;;;;;5000702;28;20073;-55
2021/12/12 12:21:23;;;;;;;8.73;6.63;;;1.70;99.90;;;;;;5004606;28;20218;-48
2021/12/12 12:46:43;;;;;;;14.15;8.27;;;1.90;99.90;;;;;;5083312;27;20464;-53
2021/12/12 12:49:46;;;;;;;11.73;7.07;;;1.70;99.90;;;;;;5065925;28;20113;-51
2021/12/12 12:52:24;;;;;;;8.90;5.72;;;1.70;99.90;;;;;;5082253;28;20032;-48
2021/12/12 12:55:33;;;;;;;11.50;7.10;;;1.60;99.90;;;;;;5070043;28;20511;-53
2021/12/12 12:58:25;;;;;;;7.45;5.30;;;1.60;99.90;;;;;;5022485;28;20563;-49
2021/12/12 13:00:57;;;;;;;8.00;6.53;;;1.60;99.90;;;;;;5045382;28;20392;-50
2021/12/12 13:03:35;;;;;;;10.30;7.03;;;1.60;99.90;;;;;;5046779;28;20140;-51
2021/12/12 13:06:01;;;;;;;11.13;7.07;;;1.60;99.90;;;;;;5042132;28;20040;-54
2021/12/12 13:08:48;;;;;;;6.18;3.92;;;1.60;99.90;;;;;;5045106;28;20595;-51
2021/12/12 13:11:21;;;;;;;7.45;4.80;;;1.60;99.90;;;;;;5045293;28;20041;-50
2021/12/12 13:14:24;;;;;;;8.25;5.43;;;1.60;99.90;;;;;;5045519;28;20420;-48
2021/12/12 13:16:58;;;;;;;8.00;5.00;;;1.60;99.90;;;;;;5044708;28;20045;-51
2021/12/12 13:19:37;;;;;;;8.07;5.93;;;1.60;99.90;;;;;;5042693;28;20036;-49
2021/12/12 13:22:15;;;;;;;7.03;4.97;;;1.60;99.90;;;;;;5024650;28;20042;-49
2021/12/12 13:25:10;;;;;;;10.43;7.68;;;1.60;99.90;;;;;;5023325;28;20029;-50
2021/12/12 13:28:21;;;;;;;14.25;8.80;;;1.50;99.90;;;;;;5021745;28;20124;-45
2021/12/12 13:30:58;;;;;;;10.82;8.15;;;1.60;99.90;;;;;;5015577;28;20573;-48
2021/12/12 13:33:44;;;;;;;11.48;8.07;;;1.60;99.90;;;;;;5028230;28;20048;-53
2021/12/12 13:36:27;;;;;;;10.52;7.65;;;1.60;99.90;;;;;;5068166;28;20442;-49
2021/12/12 13:38:55;;;;;;;9.68;7.20;;;1.50;99.90;;;;;;5074741;28;20040;-54
2021/12/12 13:41:53;;;;;;;9.52;6.97;;;1.40;99.90;;;;;;5071870;28;20027;-47
2021/12/12 13:44:24;;;;;;;12.77;8.23;;;1.50;99.90;;;;;;5030119;28;20172;-47
2021/12/12 13:47:16;;;;;;;16.13;10.13;;;1.50;99.90;;;;;;5016127;28;20053;-50
2021/12/12 13:50:00;;;;;;;14.50;10.40;;;1.60;99.90;;;;;;5007284;28;20083;-54
2021/12/12 13:53:11;;;;;;;8.30;5.60;;;1.60;99.90;;;;;;5012150;28;20049;-51
2021/12/12 13:55:41;;;;;;;11.93;8.63;;;1.50;99.90;;;;;;4935068;29;20056;-49
2021/12/12 13:58:15;;;;;;;12.05;8.13;;;1.60;99.90;;;;;;4938900;29;20042;-50
2021/12/12 14:00:45;;;;;;;9.65;6.03;;;1.40;99.90;;;;;;4936708;29;20407;-50
2021/12/12 14:03:27;;;;;;;13.48;9.02;;;1.50;99.90;;;;;;4933836;29;20043;-53
2021/12/12 14:05:54;;;;;;;7.70;5.63;;;1.50;99.90;;;;;;4938984;29;20077;-50
2021/12/12 14:08:27;;;;;;;16.25;11.65;;;1.50;99.90;;;;;;4939641;29;20032;-55
2021/12/12 14:11:03;;;;;;;11.98;8.63;;;1.60;99.90;;;;;;4940084;29;20079;-53
2021/12/12 14:13:42;;;;;;;11.23;8.93;;;1.60;99.90;;;;;;4934007;29;20024;-53
2021/12/12 14:16:20;;;;;;;8.65;6.07;;;1.60;99.90;;;;;;4935891;29;20035;-52
2021/12/12 14:19:07;;;;;;;15.00;9.80;;;1.60;99.90;;;;;;4942610;29;20483;-54
2021/12/12 14:21:34;;;;;;;10.35;6.30;;;1.60;99.90;;;;;;4964387;28;20166;-49
2021/12/12 14:24:00;;;;;;;14.85;8.95;;;1.60;99.90;;;;;;4984190;28;20034;-48
2021/12/12 14:26:33;;;;;;;8.55;6.95;;;1.60;99.90;;;;;;4983582;28;20034;-49
2021/12/12 14:29:03;;;;;;;15.75;10.50;;;1.60;99.90;;;;;;4986312;28;20045;-48
2021/12/12 14:31:36;;;;;;;12.23;8.55;;;1.60;99.90;;;;;;5026758;28;20048;-53
2021/12/12 14:34:15;;;;;;;13.07;9.02;;;1.60;99.90;;;;;;5058767;28;20037;-50
2021/12/12 14:36:46;;;;;;;14.75;8.45;;;1.60;99.90;;;;;;5056601;28;21008;-52
2021/12/12 14:39:15;;;;;;;14.15;8.93;;;1.50;99.90;;;;;;5070783;28;20116;-47
2021/12/12 14:41:45;;;;;;;12.35;8.93;;;1.50;99.90;;;;;;5053794;28;20057;-53
2021/12/12 15:26:57;;;;;;;22.00;14.43;;;1.70;99.90;;;;;;5104364;27;20386;-57
2021/12/12 15:29:27;;;;;;;22.63;14.55;;;1.70;99.90;;;;;;5088556;28;20068;-49
2021/12/12 15:31:56;;;;;;;20.35;12.90;;;1.70;99.90;;;;;;5072134;28;20055;-49
2021/12/12 15:34:27;;;;;;;12.63;9.70;;;1.70;99.90;;;;;;5069320;28;20062;-52
2021/12/12 15:37:03;;;;;;;13.70;9.93;;;1.70;99.90;;;;;;5088645;28;20070;-52
2021/12/12 15:39:33;;;;;;;11.35;6.97;;;;;;;;;;5087442;28;20043;-59
2021/12/12 15:42:02;;;;;;;14.65;9.45;;;;;;;;;;5066850;28;20146;-57
2021/12/12 15:44:31;;;;;;;13.20;10.23;;;;;;;;;;5073943;28;20035;-59
2021/12/12 15:46:59;;;;;;;15.45;10.77;;;;;;;;;;5088431;28;20471;-52
2021/12/12 15:49:35;;;;;;;15.35;10.82;;;;;;;;;;5075713;28;20039;-56